createdAt,value
2022-09-24T00:01:40.673Z,101296.97
2022-09-24T00:04:12.761Z,101298.69
2022-09-24T00:06:46.092Z,101297.94
2022-09-24T00:09:22.073Z,101299.69
2022-09-24T00:11:53.354Z,101299.63
2022-09-24T00:14:20.960Z,101292.69
2022-09-24T00:16:48.452Z,101297.06
2022-09-24T00:19:16.030Z,101290.97
2022-09-24T00:21:44.206Z,101285.00
2022-09-24T00:24:35.759Z,101291.09
2022-09-24T00:27:03.734Z,101296.25
2022-09-24T00:29:32.935Z,101284.94
2022-09-24T00:32:00.593Z,101286.69
2022-09-24T00:34:28.217Z,101287.59
2022-09-24T00:36:55.698Z,101281.50
2022-09-24T00:39:23.152Z,101284.16
2022-09-24T00:41:50.635Z,101276.34
2022-09-24T00:44:46.254Z,101275.44
2022-09-24T00:47:19.457Z,101278.97
2022-09-24T00:49:50.118Z,101277.22
2022-09-24T00:52:19.755Z,101274.56
2022-09-24T00:54:48.020Z,101274.56
2022-09-24T00:57:15.794Z,101263.31
2022-09-24T00:59:45.047Z,101265.91
2022-09-24T01:02:12.695Z,101261.59
2022-09-24T01:04:40.319Z,101260.75
2022-09-24T01:07:07.804Z,101258.19
2022-09-24T01:09:35.684Z,101261.66
2022-09-24T01:12:20.505Z,101266.03
2022-09-24T01:15:08.246Z,101260.78
2022-09-24T01:17:49.427Z,101249.47
2022-09-24T01:20:58.561Z,101249.47
2022-09-24T01:23:48.557Z,101248.59
2022-09-24T01:26:21.475Z,101246.84
2022-09-24T01:28:52.009Z,101251.22
2022-09-24T01:31:30.972Z,101246.03
2022-09-24T01:34:05.646Z,101248.66
2022-09-24T01:36:36.899Z,101239.03
2022-09-24T01:39:07.873Z,101239.94
2022-09-24T01:41:37.328Z,101231.28
2022-09-24T01:44:07.791Z,101235.63
2022-09-24T01:46:39.707Z,101226.97
2022-09-24T01:49:08.038Z,101231.31
2022-09-24T01:51:48.208Z,101236.53
2022-09-24T01:54:30.231Z,101234.75
2022-09-24T01:57:03.749Z,101229.59
2022-09-24T01:59:40.500Z,101223.53
2022-09-24T02:02:23.325Z,101222.69
2022-09-24T02:04:59.596Z,101214.91
2022-09-24T02:07:43.774Z,101220.09
2022-09-24T02:10:21.570Z,101211.44
2022-09-24T02:12:59.425Z,101214.00
2022-09-24T02:15:35.646Z,101207.94
2022-09-24T02:18:10.202Z,101201.84
2022-09-24T02:20:40.178Z,101197.56
2022-09-24T02:23:09.179Z,101198.44
2022-09-24T02:25:57.909Z,101196.72
2022-09-24T02:28:25.959Z,101205.38
2022-09-24T02:31:00.240Z,101205.44
2022-09-24T02:33:47.407Z,101200.22
2022-09-24T02:36:14.965Z,101205.50
2022-09-24T02:38:43.114Z,101205.47
2022-09-24T02:41:11.558Z,101196.75
2022-09-24T02:43:41.003Z,101201.06
2022-09-24T02:46:10.277Z,101207.22
2022-09-24T02:48:38.546Z,101209.78
2022-09-24T02:51:06.637Z,101198.47
2022-09-24T02:53:34.338Z,101191.50
2022-09-24T02:56:02.386Z,101199.31
2022-09-24T02:58:31.092Z,101195.84
2022-09-24T03:00:59.009Z,101195.00
2022-09-24T03:03:27.479Z,101188.91
2022-09-24T03:05:55.165Z,101188.06
2022-09-24T03:08:24.244Z,101189.78
2022-09-24T03:10:52.789Z,101188.03
2022-09-24T03:13:20.484Z,101184.56
2022-09-24T03:15:47.992Z,101175.03
2022-09-24T03:18:16.064Z,101180.19
2022-09-24T03:20:43.557Z,101179.34
2022-09-24T03:23:11.047Z,101185.41
2022-09-24T03:25:38.544Z,101181.97
2022-09-24T03:28:06.051Z,101177.66
2022-09-24T03:30:50.766Z,101173.28
2022-09-24T03:33:18.273Z,101181.09
2022-09-24T03:35:45.743Z,101174.19
2022-09-24T03:38:13.198Z,101175.88
2022-09-24T03:40:40.771Z,101179.44
2022-09-24T03:43:08.391Z,101186.34
2022-09-24T03:45:35.984Z,101176.81
2022-09-24T03:48:03.440Z,101174.22
2022-09-24T03:50:30.880Z,101173.34
2022-09-24T03:52:58.377Z,101171.59
2022-09-24T03:55:25.854Z,101174.19
2022-09-24T03:57:53.390Z,101170.69
2022-09-24T04:00:20.862Z,101170.66
2022-09-24T04:02:48.407Z,101163.75
2022-09-24T04:05:16.129Z,101167.25
2022-09-24T04:07:45.015Z,101168.13
2022-09-24T04:10:13.690Z,101164.63
2022-09-24T04:12:41.222Z,101164.59
2022-09-24T04:15:09.062Z,101160.28
2022-09-24T04:17:36.627Z,101161.13
2022-09-24T04:20:04.285Z,101158.53
2022-09-24T04:22:31.878Z,101160.25
2022-09-24T04:24:59.395Z,101158.50
2022-09-24T04:27:26.916Z,101162.00
2022-09-24T04:29:55.194Z,101160.25
2022-09-24T04:32:22.812Z,101155.91
2022-09-24T04:34:50.295Z,101156.78
2022-09-24T04:37:17.762Z,101149.78
2022-09-24T04:39:45.272Z,101145.44
2022-09-24T04:42:18.067Z,101153.25
2022-09-24T04:44:47.766Z,101152.38
2022-09-24T04:47:16.067Z,101151.47
2022-09-24T04:49:45.841Z,101154.97
2022-09-24T04:52:14.941Z,101157.59
2022-09-24T04:54:47.327Z,101160.19
2022-09-24T04:57:16.026Z,101165.44
2022-09-24T04:59:44.417Z,101165.41
2022-09-24T05:02:12.338Z,101162.81
2022-09-24T05:04:39.883Z,101160.22
2022-09-24T05:07:07.410Z,101168.91
2022-09-24T05:09:34.962Z,101169.75
2022-09-24T05:12:03.419Z,101170.63
2022-09-24T05:14:31.234Z,101164.53
2022-09-24T05:16:58.878Z,101164.56
2022-09-24T05:19:26.440Z,101166.28
2022-09-24T05:21:53.894Z,101170.63
2022-09-24T05:24:21.347Z,101167.19
2022-09-24T05:27:06.378Z,101170.59
2022-09-24T05:29:33.850Z,101167.13
2022-09-24T05:32:05.600Z,101168.03
2022-09-24T05:34:33.833Z,101174.06
2022-09-24T05:37:02.275Z,101167.09
2022-09-24T05:39:33.896Z,101172.31
2022-09-24T05:42:04.189Z,101173.19
2022-09-24T05:44:32.861Z,101179.25
2022-09-24T05:47:00.742Z,101170.56
2022-09-24T05:49:28.309Z,101172.31
2022-09-24T05:51:55.793Z,101176.63
2022-09-24T05:54:23.254Z,101174.91
2022-09-24T05:56:50.888Z,101184.50
2022-09-24T05:59:18.399Z,101188.00
2022-09-24T06:01:45.974Z,101188.00
2022-09-24T06:04:13.858Z,101184.56
2022-09-24T06:06:41.345Z,101176.72
2022-09-24T06:09:10.109Z,101182.78
2022-09-24T06:11:40.771Z,101181.06
2022-09-24T06:14:09.735Z,101179.28
2022-09-24T06:16:37.458Z,101193.16
2022-09-24T06:19:05.356Z,101189.69
2022-09-24T06:21:33.053Z,101191.41
2022-09-24T06:24:00.527Z,101193.13
2022-09-24T06:26:28.994Z,101199.22
2022-09-24T06:29:00.771Z,101194.88
2022-09-24T06:31:31.588Z,101201.81
2022-09-24T06:33:59.264Z,101205.22
2022-09-24T06:36:27.032Z,101212.22
2022-09-24T06:38:54.625Z,101205.22
2022-09-24T06:41:22.524Z,101209.56
2022-09-24T06:43:50.166Z,101205.19
2022-09-24T06:46:18.220Z,101212.13
2022-09-24T06:48:45.881Z,101219.06
2022-09-24T06:51:13.520Z,101223.34
2022-09-24T06:53:41.157Z,101215.50
2022-09-24T06:56:08.767Z,101212.91
2022-09-24T06:58:36.428Z,101225.03
2022-09-24T07:01:04.759Z,101231.16
2022-09-24T07:03:34.414Z,101228.59
2022-09-24T07:06:04.823Z,101226.88
2022-09-24T07:08:32.917Z,101241.66
2022-09-24T07:11:01.633Z,101236.41
2022-09-24T07:13:29.303Z,101240.75
2022-09-24T07:15:56.947Z,101240.81
2022-09-24T07:18:24.615Z,101239.03
2022-09-24T07:20:54.192Z,101242.59
2022-09-24T07:23:22.670Z,101243.50
2022-09-24T07:25:53.906Z,101254.81
2022-09-24T07:28:21.511Z,101257.41
2022-09-24T07:30:57.490Z,101258.25
2022-09-24T07:33:25.241Z,101253.88
2022-09-24T07:35:52.879Z,101243.47
2022-09-24T07:38:20.638Z,101246.06
2022-09-24T07:40:48.305Z,101252.09
2022-09-24T07:43:15.996Z,101266.81
2022-09-24T07:45:43.902Z,101259.03
2022-09-24T07:48:12.863Z,101258.97
2022-09-24T07:50:41.952Z,101264.19
2022-09-24T07:53:13.653Z,101273.72
2022-09-24T07:55:42.031Z,101264.97
2022-09-24T07:58:13.550Z,101258.88
2022-09-24T08:00:41.708Z,101264.88
2022-09-24T08:03:09.898Z,101265.72
2022-09-24T08:05:37.893Z,101263.00
2022-09-24T08:08:06.507Z,101262.06
2022-09-24T08:10:34.193Z,101266.41
2022-09-24T08:13:05.030Z,101259.47
2022-09-24T08:15:32.692Z,101257.66
2022-09-24T08:18:04.514Z,101251.44
2022-09-24T08:20:33.736Z,101259.28
2022-09-24T08:23:03.299Z,101268.00
2022-09-24T08:25:31.273Z,101261.88
2022-09-24T08:28:04.523Z,101267.91
2022-09-24T08:30:33.425Z,101281.94
2022-09-24T08:33:01.271Z,101275.91
2022-09-24T08:35:28.878Z,101282.88
2022-09-24T08:37:57.144Z,101277.59
2022-09-24T08:40:27.773Z,101288.06
2022-09-24T08:43:42.033Z,101288.06
2022-09-24T08:46:40.325Z,101293.25
2022-09-24T08:49:11.966Z,101295.91
2022-09-24T08:51:47.528Z,101301.16
2022-09-24T08:54:16.369Z,101298.59
2022-09-24T08:56:47.379Z,101297.75
2022-09-24T08:59:30.456Z,101303.94
2022-09-24T09:02:04.191Z,101312.56
2022-09-24T09:04:59.959Z,101316.06
2022-09-24T09:07:38.410Z,101314.38
2022-09-24T09:10:10.799Z,101299.69
2022-09-24T09:12:44.112Z,101309.22
2022-09-24T09:15:20.729Z,101312.63
2022-09-24T09:17:54.040Z,101324.00
2022-09-24T09:20:31.151Z,101316.97
2022-09-24T09:23:04.747Z,101314.34
2022-09-24T09:25:39.031Z,101325.72
2022-09-24T09:28:15.137Z,101334.44
2022-09-24T09:31:01.110Z,101342.31
2022-09-24T09:33:40.962Z,101338.88
2022-09-24T09:36:39.409Z,101342.34
2022-09-24T09:39:28.419Z,101338.03
2022-09-24T09:42:10.492Z,101337.09
2022-09-24T09:44:42.516Z,101338.81
2022-09-24T09:47:44.693Z,101340.53
2022-09-24T09:50:20.746Z,101331.88
2022-09-24T09:52:48.448Z,101343.13
2022-09-24T09:55:28.508Z,101336.28
2022-09-24T09:58:19.552Z,101337.06
2022-09-24T10:00:48.412Z,101340.63
2022-09-24T10:03:46.305Z,101336.22
2022-09-24T10:06:31.668Z,101342.28
2022-09-24T10:09:08.624Z,101351.84
2022-09-24T10:11:36.317Z,101344.03
2022-09-24T10:14:10.788Z,101340.59
2022-09-24T10:16:49.114Z,101353.66
2022-09-24T10:19:22.716Z,101347.59
2022-09-24T10:21:51.851Z,101350.19
2022-09-24T10:24:27.697Z,101348.50
2022-09-24T10:26:56.711Z,101358.16
2022-09-24T10:29:45.784Z,101353.78
2022-09-24T10:32:19.846Z,101358.25
2022-09-24T10:35:06.771Z,101361.66
2022-09-24T10:37:36.100Z,101363.41
2022-09-24T10:40:15.490Z,101358.19
2022-09-24T10:42:43.344Z,101365.19
2022-09-24T10:45:15.016Z,101368.63
2022-09-24T10:47:59.042Z,101373.00
2022-09-24T10:50:54.316Z,101375.56
2022-09-24T10:53:53.293Z,101385.97
2022-09-24T10:57:01.335Z,101386.78
2022-09-24T10:59:51.261Z,101381.50
2022-09-24T11:02:56.664Z,101381.44
2022-09-24T11:05:26.058Z,101379.81
2022-09-24T11:08:05.267Z,101377.09
2022-09-24T11:10:54.112Z,101382.47
2022-09-24T11:13:52.031Z,101396.34
2022-09-24T11:16:19.842Z,101392.88
2022-09-24T11:19:24.295Z,101391.09
2022-09-24T11:22:03.704Z,101394.63
2022-09-24T11:25:09.437Z,101392.88
2022-09-24T11:28:01.345Z,101379.88
2022-09-24T11:30:40.727Z,101394.59
2022-09-24T11:33:11.211Z,101396.34
2022-09-24T11:36:06.413Z,101391.91
2022-09-24T11:38:59.927Z,101392.69
2022-09-24T11:41:37.027Z,101399.75
2022-09-24T11:44:40.046Z,101397.09
2022-09-24T11:47:26.224Z,101398.81
2022-09-24T11:50:14.293Z,101399.69
2022-09-24T11:52:55.468Z,101394.47
2022-09-24T11:55:25.857Z,101406.66
2022-09-24T11:58:07.552Z,101396.22
2022-09-24T12:00:41.699Z,101397.06
2022-09-24T12:03:26.417Z,101394.50
2022-09-24T12:06:03.036Z,101403.22
2022-09-24T12:08:41.807Z,101400.63
2022-09-24T12:11:20.858Z,101395.31
2022-09-24T12:13:55.637Z,101391.75
2022-09-24T12:16:28.371Z,101395.09
2022-09-24T12:19:10.253Z,101397.84
2022-09-24T12:21:42.143Z,101398.78
2022-09-24T12:24:23.203Z,101373.59
2022-09-24T12:26:57.712Z,101400.50
2022-09-24T12:29:55.062Z,101401.22
2022-09-24T12:32:58.076Z,101395.16
2022-09-24T12:35:55.131Z,101399.41
2022-09-24T12:38:57.517Z,101404.69
2022-09-24T12:41:48.427Z,101402.06
2022-09-24T12:44:23.850Z,101392.53
2022-09-24T12:46:57.381Z,101396.00
2022-09-24T12:49:27.659Z,101389.06
2022-09-24T12:51:57.672Z,101392.38
2022-09-24T12:54:28.752Z,101397.47
2022-09-24T12:57:26.469Z,101400.97
2022-09-24T13:00:01.940Z,101394.66
2022-09-24T13:02:33.220Z,101395.69
2022-09-24T13:05:03.857Z,101399.09
2022-09-24T13:07:41.152Z,101395.66
2022-09-24T13:10:30.711Z,101390.44
2022-09-24T13:13:00.875Z,101396.59
2022-09-24T13:15:40.031Z,101395.59
2022-09-24T13:18:24.294Z,101394.78
2022-09-24T13:21:09.357Z,101386.91
2022-09-24T13:23:37.076Z,101403.41
2022-09-24T13:26:10.671Z,101396.63
2022-09-24T13:28:48.892Z,101401.78
2022-09-24T13:31:22.734Z,101397.47
2022-09-24T13:34:10.772Z,101394.03
2022-09-24T13:36:47.001Z,101398.31
2022-09-24T13:39:21.279Z,101394.81
2022-09-24T13:42:07.527Z,101397.47
2022-09-24T13:44:44.954Z,101395.84
2022-09-24T13:47:28.641Z,101405.28
2022-09-24T13:50:23.742Z,101393.88
2022-09-24T13:53:29.777Z,101406.13
2022-09-24T13:56:01.411Z,101411.25
2022-09-24T13:58:41.168Z,101409.59
2022-09-24T14:01:21.525Z,101407.94
2022-09-24T14:04:05.645Z,101411.41
2022-09-24T14:06:40.080Z,101411.38
2022-09-24T14:09:18.218Z,101414.94
2022-09-24T14:11:53.591Z,101406.97
2022-09-24T14:14:24.698Z,101414.78
2022-09-24T14:16:54.965Z,101412.94
2022-09-24T14:19:24.246Z,101409.53
2022-09-24T14:21:57.984Z,101412.97
2022-09-24T14:24:31.007Z,101405.97
2022-09-24T14:27:08.271Z,101412.75
2022-09-24T14:29:48.238Z,101408.56
2022-09-24T14:32:32.366Z,101412.00
2022-09-24T14:35:06.431Z,101406.09
2022-09-24T14:37:37.162Z,101400.75
2022-09-24T14:40:12.965Z,101403.38
2022-09-24T14:42:56.560Z,101412.97
2022-09-24T14:45:34.419Z,101402.47
2022-09-24T14:48:07.500Z,101416.47
2022-09-24T14:50:41.417Z,101407.75
2022-09-24T14:53:28.063Z,101408.66
2022-09-24T14:55:55.790Z,101413.06
2022-09-24T14:58:25.937Z,101420.97
2022-09-24T15:00:59.265Z,101417.59
2022-09-24T15:03:33.793Z,101414.91
2022-09-24T15:06:17.730Z,101425.31
2022-09-24T15:08:52.841Z,101421.00
2022-09-24T15:11:21.288Z,101405.44
2022-09-24T15:13:59.466Z,101418.47
2022-09-24T15:16:31.888Z,101413.09
2022-09-24T15:19:16.868Z,101412.31
2022-09-24T15:21:45.517Z,101411.38
2022-09-24T15:24:13.153Z,101420.97
2022-09-24T15:26:43.435Z,101407.88
2022-09-24T15:29:24.342Z,101413.13
2022-09-24T15:31:53.413Z,101410.53
2022-09-24T15:34:21.328Z,101409.59
2022-09-24T15:36:55.725Z,101413.09
2022-09-24T15:39:23.665Z,101414.81
2022-09-24T15:41:51.300Z,101407.84
2022-09-24T15:44:26.242Z,101409.59
2022-09-24T15:46:57.598Z,101412.16
2022-09-24T15:49:26.325Z,101413.00
2022-09-24T15:52:02.991Z,101417.41
2022-09-24T15:54:30.669Z,101424.34
2022-09-24T15:56:58.854Z,101413.84
2022-09-24T15:59:26.494Z,101418.22
2022-09-24T16:01:58.668Z,101423.38
2022-09-24T16:04:26.242Z,101421.72
2022-09-24T16:06:53.941Z,101428.66
2022-09-24T16:09:21.572Z,101433.94
2022-09-24T16:11:49.232Z,101431.31
2022-09-24T16:14:16.886Z,101432.19
2022-09-24T16:16:44.534Z,101437.44
2022-09-24T16:19:12.523Z,101443.63
2022-09-24T16:21:40.346Z,101434.00
2022-09-24T16:24:08.021Z,101442.69
2022-09-24T16:26:35.716Z,101449.72
2022-09-24T16:29:04.953Z,101451.53
2022-09-24T16:31:32.761Z,101441.03
2022-09-24T16:34:01.157Z,101450.63
2022-09-24T16:36:28.912Z,101447.13
2022-09-24T16:38:58.148Z,101448.88
2022-09-24T16:41:25.879Z,101456.75
2022-09-24T16:43:58.410Z,101456.69
2022-09-24T16:46:26.112Z,101455.00
2022-09-24T16:48:53.818Z,101455.03
2022-09-24T16:51:22.182Z,101462.09
2022-09-24T16:53:51.383Z,101456.88
2022-09-24T16:56:19.179Z,101453.31
2022-09-24T16:58:47.983Z,101458.63
2022-09-24T17:01:18.343Z,101449.13
2022-09-24T17:03:51.119Z,101455.16
2022-09-24T17:06:24.262Z,101450.00
2022-09-24T17:09:09.718Z,101447.44
2022-09-24T17:11:40.177Z,101459.63
2022-09-24T17:14:11.547Z,101462.31
2022-09-24T17:16:40.101Z,101453.63
2022-09-24T17:19:08.329Z,101465.84
2022-09-24T17:21:40.424Z,101463.25
2022-09-24T17:24:08.466Z,101471.13
2022-09-24T17:26:36.768Z,101473.81
2022-09-24T17:29:04.986Z,101479.91
2022-09-24T17:31:32.843Z,101484.31
2022-09-24T17:34:02.964Z,101491.25
2022-09-24T17:36:32.499Z,101495.66
2022-09-24T17:39:01.049Z,101489.63
2022-09-24T17:41:30.293Z,101492.25
2022-09-24T17:43:59.693Z,101494.03
2022-09-24T17:46:29.672Z,101494.94
2022-09-24T17:48:59.934Z,101493.16
2022-09-24T17:51:37.794Z,101494.09
2022-09-24T17:54:12.363Z,101501.09
2022-09-24T17:56:40.510Z,101501.97
2022-09-24T17:59:09.824Z,101515.03
2022-09-24T18:01:39.807Z,101515.06
2022-09-24T18:04:11.615Z,101514.25
2022-09-24T18:06:41.148Z,101522.97
2022-09-24T18:09:10.097Z,101532.53
2022-09-24T18:11:48.969Z,101533.44
2022-09-24T18:14:23.686Z,101526.50
2022-09-24T18:16:51.711Z,101532.63
2022-09-24T18:19:19.763Z,101537.91
2022-09-24T18:21:49.272Z,101538.75
2022-09-24T18:24:17.490Z,101540.53
2022-09-24T18:26:49.512Z,101550.97
2022-09-24T18:29:19.371Z,101548.41
2022-09-24T18:31:47.013Z,101551.03
2022-09-24T18:34:16.339Z,101544.97
2022-09-24T18:36:45.332Z,101553.66
2022-09-24T18:39:21.711Z,101549.31
2022-09-24T18:41:51.889Z,101558.03
2022-09-24T18:44:19.613Z,101554.56
2022-09-24T18:46:47.224Z,101557.19
2022-09-24T18:49:14.809Z,101566.75
2022-09-24T18:51:42.356Z,101565.03
2022-09-24T18:54:13.954Z,101560.69
2022-09-24T18:56:42.787Z,101562.44
2022-09-24T18:59:19.344Z,101559.00
2022-09-24T19:01:48.155Z,101557.25
2022-09-24T19:04:16.009Z,101565.97
2022-09-24T19:06:46.191Z,101566.81
2022-09-24T19:09:17.333Z,101572.06
2022-09-24T19:11:46.289Z,101578.13
2022-09-24T19:14:17.989Z,101582.50
2022-09-24T19:16:47.061Z,101584.22
2022-09-24T19:19:14.676Z,101576.38
2022-09-24T19:21:42.215Z,101572.03
2022-09-24T19:24:10.834Z,101583.34
2022-09-24T19:26:38.448Z,101579.88
2022-09-24T19:29:06.656Z,101589.44
2022-09-24T19:31:37.071Z,101587.72
2022-09-24T19:34:06.660Z,101585.09
2022-09-24T19:36:42.802Z,101588.59
2022-09-24T19:39:12.517Z,101605.94
2022-09-24T19:41:40.233Z,101598.97
2022-09-24T19:44:09.022Z,101602.44
2022-09-24T19:46:38.445Z,101609.41
2022-09-24T19:49:06.997Z,101605.91
2022-09-24T19:51:35.364Z,101598.97
2022-09-24T19:54:08.071Z,101612.84
2022-09-24T19:56:36.339Z,101606.78
2022-09-24T19:59:04.834Z,101609.38
2022-09-24T20:01:33.541Z,101598.94
2022-09-24T20:04:05.028Z,101611.09
2022-09-24T20:06:34.336Z,101609.34
2022-09-24T20:09:01.999Z,101628.44
2022-09-24T20:11:32.376Z,101619.75
2022-09-24T20:14:00.222Z,101619.69
2022-09-24T20:16:30.975Z,101619.69
2022-09-24T20:18:58.478Z,101624.00
2022-09-24T20:21:28.526Z,101623.16
2022-09-24T20:23:58.566Z,101619.63
2022-09-24T20:26:44.488Z,101619.63
2022-09-24T20:29:13.716Z,101626.53
2022-09-24T20:31:44.423Z,101625.66
2022-09-24T20:34:11.959Z,101625.63
2022-09-24T20:36:39.497Z,101630.84
2022-09-24T20:39:06.988Z,101633.38
2022-09-24T20:41:34.471Z,101634.22
2022-09-24T20:44:02.147Z,101631.59
2022-09-24T20:46:30.238Z,101645.41
2022-09-24T20:48:59.867Z,101650.63
2022-09-24T20:51:33.518Z,101648.88
2022-09-24T20:54:01.896Z,101649.72
2022-09-24T20:56:30.990Z,101640.16
2022-09-24T20:59:00.884Z,101647.13
2022-09-24T21:01:28.833Z,101655.75
2022-09-24T21:03:58.221Z,101650.53
2022-09-24T21:06:26.907Z,101653.09
2022-09-24T21:08:54.918Z,101646.16
2022-09-24T21:11:26.779Z,101648.69
2022-09-24T21:13:57.297Z,101641.72
2022-09-24T21:16:28.851Z,101646.91
2022-09-24T21:18:56.834Z,101647.75
2022-09-24T21:21:29.967Z,101639.06
2022-09-24T21:23:59.814Z,101648.63
2022-09-24T21:26:29.493Z,101645.19
2022-09-24T21:29:01.548Z,101648.63
2022-09-24T21:31:31.662Z,101655.53
2022-09-24T21:33:59.929Z,101656.34
2022-09-24T21:36:32.875Z,101661.56
2022-09-24T21:39:02.763Z,101659.75
2022-09-24T21:41:34.954Z,101657.09
2022-09-24T21:44:03.119Z,101669.19
2022-09-24T21:46:31.343Z,101669.16
2022-09-24T21:49:00.237Z,101675.16
2022-09-24T21:51:30.163Z,101668.13
2022-09-24T21:54:06.716Z,101666.38
2022-09-24T21:56:36.372Z,101663.72
2022-09-24T21:59:26.661Z,101653.25
2022-09-24T22:01:54.945Z,101656.75
2022-09-24T22:04:24.304Z,101667.97
2022-09-24T22:06:52.526Z,101672.25
2022-09-24T22:09:21.525Z,101667.84
2022-09-24T22:11:49.316Z,101673.91
2022-09-24T22:14:16.823Z,101663.44
2022-09-24T22:16:44.869Z,101671.22
2022-09-24T22:19:12.439Z,101673.78
2022-09-24T22:21:40.496Z,101676.34
2022-09-24T22:24:08.154Z,101682.34
2022-09-24T22:26:35.902Z,101675.38
2022-09-24T22:29:04.113Z,101670.19
2022-09-24T22:31:32.948Z,101662.38
2022-09-24T22:34:18.031Z,101670.16
2022-09-24T22:36:45.555Z,101668.41
2022-09-24T22:39:13.122Z,101668.41
2022-09-24T22:41:43.314Z,101673.59
2022-09-24T22:44:12.584Z,101670.13
2022-09-24T22:46:41.325Z,101666.63
2022-09-24T22:49:10.299Z,101661.38
2022-09-24T22:51:38.465Z,101672.63
2022-09-24T22:54:06.832Z,101669.16
2022-09-24T22:56:35.828Z,101668.22
2022-09-24T22:59:04.386Z,101663.91
2022-09-24T23:01:35.400Z,101674.28
2022-09-24T23:04:03.797Z,101670.00
2022-09-24T23:06:33.890Z,101660.41
2022-09-24T23:09:02.231Z,101673.44
2022-09-24T23:11:32.526Z,101673.44
2022-09-24T23:14:22.020Z,101669.13
2022-09-24T23:16:49.621Z,101664.81
2022-09-24T23:19:19.913Z,101671.72
2022-09-24T23:21:48.146Z,101672.63
2022-09-24T23:24:18.108Z,101672.72
2022-09-24T23:26:46.930Z,101671.00
2022-09-24T23:29:15.308Z,101669.25
2022-09-24T23:31:43.086Z,101670.94
2022-09-24T23:34:13.520Z,101661.34
2022-09-24T23:36:41.480Z,101657.97
2022-09-24T23:39:09.069Z,101662.16
2022-09-24T23:41:37.223Z,101665.63
2022-09-24T23:44:04.873Z,101663.91
2022-09-24T23:46:33.705Z,101671.66
2022-09-24T23:49:01.551Z,101664.69
2022-09-24T23:51:29.277Z,101675.94
2022-09-24T23:53:56.834Z,101670.72
2022-09-24T23:56:24.428Z,101674.19
2022-09-24T23:58:52.084Z,101666.38
